ADDS METAR Data INFO
IDs: Format: Raw Decoded Include TAF

Data at: 2052 UTC 24 Jun 2018

KCLL 241953Z 16017G24KT 10SM FEW045 34/23 A2988 RMK AO2 PK WND 15026/1859 SLP114 T03440228
KCLL 241853Z 16013KT 10SM SCT049 34/23 A2990 RMK AO2 PK WND 16026/1835 SLP118 T03390233
KCLL 241753Z 16017G23KT 10SM FEW044 34/23 A2990 RMK AO2 SLP119 T03390233 10339 20256 50004
KCLL 241653Z 17013G19KT 10SM CLR 33/24 A2990 RMK AO2 PK WND 16026/1625 SLP120 T03280239
KCLL 241553Z 19012G25KT 10SM FEW029 SCT041 31/24 A2989 RMK AO2 SLP117 T03110239
KCLL 241453Z 17018G24KT 10SM FEW024 BKN033 30/24 A2989 RMK AO2 SLP115 T03000239 53017
KCLL 241433Z 18016G23KT 10SM SCT024 BKN033 29/24 A2989 RMK AO2 T02890244
KCLL 241358Z 18014G20KT 10SM BKN018 28/24 A2988 RMK AO2 T02830244
KCLL 241353Z 17014KT 10SM FEW016 28/24 A2988 RMK AO2 SLP111 T02780244
KCLL 241253Z 17017G23KT 10SM FEW009 26/24 A2985 RMK AO2 SLP101 T02610244
KCLL 241153Z AUTO 17018KT 9SM FEW007 26/25 A2984 RMK AO2 SLP098 T02560250 10272 20256 58008
KCLL 241124Z AUTO 17013KT 9SM FEW008 26/25 A2985 RMK AO2 T02560250
KCLL 241053Z AUTO 18009KT 10SM FEW010 26/25 A2986 RMK AO2 SLP106 T02560250
KCLL 241009Z AUTO 16012KT 10SM FEW016 FEW024 26/25 A2985 RMK AO2 T02560250
KCLL 240953Z AUTO 16009KT 10SM FEW012 BKN024 26/25 A2986 RMK AO2 SLP105 T02560250
KCLL 240949Z AUTO 16008KT 10SM FEW010 SCT013 BKN024 26/25 A2986 RMK AO2
KCLL 240853Z AUTO 18007KT 10SM BKN014 BKN020 OVC043 26/25 A2988 RMK AO2 SLP114 T02610250 50006
KCLL 240753Z AUTO 19007KT 10SM SCT012 BKN020 OVC033 27/25 A2991 RMK AO2 SLP122 T02670250
KCLL 240716Z AUTO 19007KT 10SM BKN014 OVC021 27/25 A2990 RMK AO2 T02670250
KCLL 240653Z AUTO 17009KT 10SM OVC016 27/25 A2990 RMK AO2 SLP119 T02670250
KCLL 240553Z AUTO 17012G20KT 10SM BKN016 OVC024 27/25 A2987 RMK AO2 SLP108 T02720250 10328 20272 403500244 51024
KCLL 240453Z AUTO 17013G18KT 10SM OVC016 27/25 A2986 RMK AO2 SLP107 T02720250
KCLL 240425Z AUTO 17010KT 10SM BKN016 27/24 A2985 RMK AO2 T02720244
KCLL 240353Z AUTO 17015KT 10SM CLR 28/24 A2982 RMK AO2 SLP092 T02780244
KCLL 240253Z AUTO 17010KT 10SM CLR 28/24 A2980 RMK AO2 SLP084 T02830239 53007
KCLL 240153Z 16012KT 10SM CLR 30/24 A2978 RMK AO2 SLP080 T03000239
KCLL 240053Z 17015G21KT 10SM CLR 31/23 A2978 RMK AO2 SLP077 T03110228
KCLL 232353Z 17014G25KT 10SM CLR 33/22 A2977 RMK AO2 SLP076 T03280222 10350 20322 56012
KCLL 232253Z 16018G24KT 10SM CLR 34/23 A2977 RMK AO2 SLP077 T03390228
KCLL 232153Z 16014G22KT 10SM SCT045 SCT055 33/23 A2980 RMK AO2 SLP084 T03330233
KCLL 232053Z 15016KT 10SM SCT047 SCT060 34/23 A2981 RMK AO2 SLP088 T03390233 56023
KCLL 231953Z 17014G24KT 10SM FEW047 34/23 A2982 RMK AO2 SLP093 T03390228
KCLL 231853Z 14015KT 10SM SCT045 BKN050 32/23 A2985 RMK AO2 SLP101 T03220228
KCLL 231753Z 16009G18KT 10SM BKN040 BKN048 32/22 A2988 RMK AO2 SLP112 T03170222 10322 20250 58000
KCLL 231653Z 19008KT 10SM BKN036 BKN044 31/23 A2989 RMK AO2 SLP115 T03060228
KCLL 231553Z 20013KT 10SM SCT030 29/23 A2988 RMK AO2 SLP112 T02940228
KCLL 231522Z 19014G20KT 10SM SCT023 SCT030 29/23 A2988 RMK AO2 T02890233
KCLL 231453Z 19010KT 10SM BKN027 29/23 A2988 RMK AO2 SLP112 T02890233 51008
KCLL 231402Z 19010KT 10SM BKN019 27/23 A2988 RMK AO2 T02720233
KCLL 231353Z 19011KT 10SM SCT017 27/23 A2988 RMK AO2 SLP111 T02670233
KCLL 231253Z 14004KT 10SM SCT008 OVC018 25/24 A2988 RMK AO2 SLP113 T02500244
KCLL 231236Z AUTO 13004KT 10SM FEW008 BKN018 25/24 A2988 RMK AO2 T02500244
KCLL 231153Z AUTO 16007KT 9SM FEW014 24/24 A2985 RMK AO2 SLP103 T02440239 10267 20244 53009
KCLL 231103Z AUTO 17007KT 10SM SCT008 SCT014 24/24 A2985 RMK AO2 T02440239
KCLL 231053Z AUTO 16007KT 10SM CLR 24/24 A2984 RMK AO2 SLP100 T02440239
KCLL 230953Z AUTO 18008KT 10SM CLR 24/24 A2984 RMK AO2 SLP097 T02440239
KCLL 230901Z AUTO 18009KT 10SM SCT012 25/24 A2983 RMK AO2 T02500244
KCLL 230853Z AUTO 18010KT 10SM BKN013 25/24 A2983 RMK AO2 SLP094 T02500244 53002